Current | Forecast
Updated: 9:30 PM CET on December 13, 2017
Observed at Almeria, Spain
Temperature 9°C
Humidity 82%
Dew Point 6°C
Wind NNW at 6 km/h
Pressure 1026 hPa (Steady)
Conditions Clear
Visibility -
UV N/A
Clouds
Yesterday's Maximum 17°C
Yesterday's Minimum 7°C approx.
Yesterday's Heating Degree Days 11 approx.
Sunrise8:15 AM CET
Sunset5:55 PM CET
Moon Rise3:35 AM CET
Moon Set3:19 PM CET
Moon PhaseMoon Phase
Waning Crescent
Raw METARMETAR LEAM 132030Z 33003KT CAVOK 09/06 Q1026


Monday
. High: 86° F.
Tuesday
. High: 84° F.
Wednesday
. High: 75° F.
Thursday
. High: 75° F.
Friday
. High: 73° F.
Saturday
. High: 75° F.
Sunday
. High: 82° F.
Monday
. High: 80° F.

Click here for Marine Information
Scientific forecaster discussion (NWS)

Units: English | Metric

Find the Weather for any City, State or Zipcode, or Country:

U.S. State List | Severe Weather | Tropical Storms | Ski Conditions
United States | Canada | Central America | South America | Asia | Europe | Australia | Africa | Islands

Weather Underground

© Copyright 2017
The Weather Company, LLC